createdAt,value
2019-03-10T00:00:09.209Z,9.12
2019-03-10T00:02:38.326Z,9.12
2019-03-10T00:05:07.645Z,9.02
2019-03-10T00:07:36.687Z,8.97
2019-03-10T00:10:07.000Z,9.01
2019-03-10T00:12:36.117Z,9.00
2019-03-10T00:15:05.392Z,9.04
2019-03-10T00:17:34.465Z,9.02
2019-03-10T00:20:03.553Z,9.01
2019-03-10T00:22:32.626Z,8.91
2019-03-10T00:25:01.823Z,8.84
2019-03-10T00:27:31.607Z,8.82
2019-03-10T00:30:00.625Z,8.84
2019-03-10T00:32:29.731Z,8.77
2019-03-10T00:34:59.159Z,8.72
2019-03-10T00:37:28.106Z,8.67
2019-03-10T00:42:14.305Z,8.65
2019-03-10T00:45:14.364Z,8.57
2019-03-10T00:47:55.104Z,8.48
2019-03-10T00:50:33.630Z,8.31
2019-03-10T00:53:02.845Z,8.34
2019-03-10T00:55:31.911Z,8.33
2019-03-10T00:58:01.115Z,8.39
2019-03-10T01:00:30.360Z,8.24
2019-03-10T01:19:44.728Z,7.53
2019-03-10T01:22:13.770Z,7.63
2019-03-10T01:41:27.585Z,7.48
2019-03-10T01:43:56.674Z,7.52
2019-03-10T01:46:25.727Z,7.49
2019-03-10T01:48:54.717Z,7.57
2019-03-10T01:51:23.851Z,7.56
2019-03-10T01:53:52.878Z,7.43
2019-03-10T01:56:22.488Z,7.30
2019-03-10T01:58:51.543Z,7.31
2019-03-10T02:01:20.708Z,7.29
2019-03-10T02:03:49.704Z,7.41
2019-03-10T02:06:18.777Z,7.31
2019-03-10T02:08:47.898Z,7.25
2019-03-10T02:11:17.090Z,7.34
2019-03-10T02:13:46.216Z,7.36
2019-03-10T02:16:15.304Z,7.34
2019-03-10T02:18:44.396Z,7.14
2019-03-10T02:21:13.514Z,7.18
2019-03-10T02:23:42.673Z,7.19
2019-03-10T02:26:11.697Z,7.19
2019-03-10T02:28:41.533Z,7.14
2019-03-10T02:31:10.588Z,7.05
2019-03-10T02:33:39.687Z,7.09
2019-03-10T02:36:09.282Z,6.94
2019-03-10T02:38:38.285Z,7.02
2019-03-10T02:41:07.382Z,6.97
2019-03-10T02:43:36.511Z,6.83
2019-03-10T02:46:05.573Z,6.63
2019-03-10T02:48:34.668Z,6.39
2019-03-10T02:51:03.746Z,6.16
2019-03-10T02:53:35.570Z,6.33
2019-03-10T02:56:04.666Z,6.47
2019-03-10T02:58:33.609Z,6.57
2019-03-10T03:01:02.650Z,6.60
2019-03-10T03:03:31.751Z,6.67
2019-03-10T03:06:00.738Z,6.73
2019-03-10T03:08:29.870Z,6.59
2019-03-10T03:10:58.933Z,6.57
2019-03-10T03:13:27.990Z,6.60
2019-03-10T03:15:57.061Z,6.63
2019-03-10T03:18:26.202Z,6.74
2019-03-10T03:20:55.271Z,6.59
2019-03-10T03:23:24.368Z,6.60
2019-03-10T03:25:53.377Z,6.65
2019-03-10T03:28:22.472Z,6.63
2019-03-10T03:30:51.572Z,6.62
2019-03-10T03:33:20.702Z,6.62
2019-03-10T03:35:55.235Z,6.52
2019-03-10T03:38:28.765Z,6.49
2019-03-10T03:41:00.553Z,6.39
2019-03-10T03:43:29.673Z,6.54
2019-03-10T03:45:59.563Z,6.50
2019-03-10T03:48:29.626Z,6.41
2019-03-10T03:50:58.702Z,6.27
2019-03-10T03:53:27.686Z,6.29
2019-03-10T03:55:56.963Z,6.30
2019-03-10T03:58:26.115Z,6.31
2019-03-10T04:01:00.541Z,6.36
2019-03-10T04:03:29.589Z,6.39
2019-03-10T04:05:58.676Z,6.30
2019-03-10T04:08:27.669Z,6.32
2019-03-10T04:10:56.760Z,6.38
2019-03-10T04:13:25.877Z,6.34
2019-03-10T04:15:55.032Z,6.19
2019-03-10T04:18:24.247Z,6.17
2019-03-10T04:20:53.247Z,6.09
2019-03-10T04:23:22.397Z,6.08
2019-03-10T04:25:51.439Z,6.18
2019-03-10T04:28:20.452Z,6.28
2019-03-10T04:30:55.771Z,6.17
2019-03-10T04:33:24.901Z,6.08
2019-03-10T04:52:38.657Z,6.06
2019-03-10T04:55:13.105Z,6.08
2019-03-10T04:57:46.311Z,6.02
2019-03-10T05:00:15.386Z,6.05
2019-03-10T05:02:44.408Z,6.06
2019-03-10T05:05:13.481Z,6.04
2019-03-10T05:07:42.500Z,6.23
2019-03-10T05:26:56.368Z,6.37
2019-03-10T05:46:10.503Z,6.85
2019-03-10T05:48:39.583Z,6.96
2019-03-10T05:51:08.629Z,7.07
2019-03-10T05:53:37.620Z,7.00
2019-03-10T05:56:06.692Z,7.10
2019-03-10T05:58:35.709Z,7.16
2019-03-10T06:01:04.612Z,7.29
2019-03-10T06:03:33.644Z,7.33
2019-03-10T06:06:02.701Z,7.46
2019-03-10T06:08:31.793Z,7.74
2019-03-10T06:11:00.805Z,7.84
2019-03-10T06:30:15.732Z,8.48
2019-03-10T06:32:44.754Z,8.51
2019-03-10T06:35:14.437Z,8.67
2019-03-10T06:37:43.492Z,8.84
2019-03-10T06:40:12.618Z,8.95
2019-03-10T06:42:41.690Z,8.92
2019-03-10T06:45:10.865Z,8.99
2019-03-10T06:47:39.962Z,8.84
2019-03-10T06:50:12.249Z,8.91
2019-03-10T06:52:39.520Z,9.04
2019-03-10T06:55:08.709Z,9.26
2019-03-10T07:14:24.882Z,9.56
2019-03-10T07:16:57.452Z,9.60
2019-03-10T07:19:26.598Z,9.65
2019-03-10T07:21:57.456Z,9.83
2019-03-10T07:24:27.388Z,10.08
2019-03-10T07:26:57.090Z,10.15
2019-03-10T07:29:29.161Z,10.25
2019-03-10T07:32:02.227Z,10.45
2019-03-10T07:57:13.894Z,11.94
2019-03-10T07:59:50.189Z,12.24
2019-03-10T08:02:24.045Z,12.73
2019-03-10T08:05:09.366Z,12.64
2019-03-10T08:26:56.836Z,13.46
2019-03-10T08:31:34.160Z,13.34
2019-03-10T08:50:53.556Z,13.73
2019-03-10T08:53:28.689Z,13.70
2019-03-10T08:56:04.555Z,13.52
2019-03-10T08:58:37.101Z,13.58
2019-03-10T09:02:15.028Z,13.69
2019-03-10T09:04:53.218Z,13.67
2019-03-10T09:07:58.648Z,13.81
2019-03-10T09:10:36.693Z,14.04
2019-03-10T09:13:11.110Z,13.97
2019-03-10T09:15:50.180Z,14.05
2019-03-10T09:19:27.112Z,14.01
2019-03-10T09:22:03.421Z,14.46
2019-03-10T09:25:09.661Z,14.76
2019-03-10T09:28:16.265Z,14.95
2019-03-10T09:30:50.405Z,15.03
2019-03-10T09:33:28.686Z,15.03
2019-03-10T09:36:08.724Z,15.24
2019-03-10T09:38:54.906Z,15.56
2019-03-10T09:42:27.900Z,15.40
2019-03-10T09:45:02.117Z,15.64
2019-03-10T09:47:40.060Z,15.90
2019-03-10T09:50:18.576Z,16.14
2019-03-10T09:55:01.923Z,16.23
2019-03-10T09:57:36.048Z,16.12
2019-03-10T10:00:12.902Z,16.04
2019-03-10T10:04:51.495Z,16.35
2019-03-10T10:07:25.731Z,16.55
2019-03-10T10:10:02.006Z,17.00
2019-03-10T10:12:35.339Z,16.98
2019-03-10T10:16:10.581Z,17.07
2019-03-10T10:38:04.603Z,18.37
2019-03-10T10:41:37.826Z,18.40
2019-03-10T10:45:10.026Z,18.45
2019-03-10T10:47:50.997Z,18.51
2019-03-10T10:51:24.232Z,18.46
2019-03-10T10:54:03.441Z,18.25
2019-03-10T10:56:46.487Z,18.21
2019-03-10T10:59:24.675Z,18.46
2019-03-10T11:02:14.524Z,18.73
2019-03-10T11:04:51.502Z,18.81
2019-03-10T11:07:27.697Z,18.67
2019-03-10T11:10:03.866Z,18.99
2019-03-10T11:12:47.006Z,18.40
2019-03-10T11:15:21.917Z,18.68
2019-03-10T11:18:08.903Z,18.60
2019-03-10T11:23:32.386Z,18.89
2019-03-10T11:26:09.540Z,19.08
2019-03-10T11:28:47.508Z,19.25
2019-03-10T11:31:24.558Z,18.92
2019-03-10T11:33:57.697Z,19.11
2019-03-10T11:36:37.792Z,19.49
2019-03-10T11:39:16.316Z,19.64
2019-03-10T11:41:50.613Z,19.87
2019-03-10T11:44:34.588Z,19.46
2019-03-10T11:47:07.710Z,19.70
2019-03-10T11:49:47.766Z,19.43
2019-03-10T11:52:22.970Z,19.55
2019-03-10T11:55:28.347Z,19.16
2019-03-10T11:58:01.535Z,19.19
2019-03-10T12:00:41.600Z,19.34
2019-03-10T12:03:16.764Z,19.38
2019-03-10T12:07:58.325Z,19.27
2019-03-10T12:10:27.579Z,19.23
2019-03-10T12:12:56.577Z,19.27
2019-03-10T12:15:25.721Z,19.84
2019-03-10T12:17:54.695Z,20.21
2019-03-10T12:20:23.760Z,20.26
2019-03-10T12:22:52.812Z,20.43
2019-03-10T12:25:21.949Z,20.81
2019-03-10T12:27:50.983Z,21.13
2019-03-10T12:30:20.036Z,21.12
2019-03-10T12:32:49.073Z,21.19
2019-03-10T12:35:18.108Z,21.65
2019-03-10T12:37:47.859Z,21.06
2019-03-10T12:40:16.845Z,20.95
2019-03-10T12:42:45.909Z,21.08
2019-03-10T12:45:15.038Z,20.79
2019-03-10T12:47:44.116Z,21.19
2019-03-10T12:50:13.244Z,20.74
2019-03-10T12:52:48.635Z,20.85
2019-03-10T12:55:17.714Z,20.99
2019-03-10T12:57:46.635Z,21.09
2019-03-10T13:00:15.752Z,20.98
2019-03-10T13:02:44.792Z,21.40
2019-03-10T13:05:13.951Z,21.08
2019-03-10T13:07:43.012Z,21.40
2019-03-10T13:10:12.824Z,21.12
2019-03-10T13:12:41.214Z,21.29
2019-03-10T13:15:10.697Z,20.74
2019-03-10T13:17:39.728Z,20.97
2019-03-10T13:20:09.070Z,20.73
2019-03-10T13:22:38.076Z,21.20
2019-03-10T13:25:07.609Z,21.12
2019-03-10T13:27:36.659Z,21.80
2019-03-10T13:46:51.835Z,22.17
2019-03-10T13:49:21.589Z,22.05
2019-03-10T13:51:50.687Z,22.34
2019-03-10T13:54:19.827Z,22.31
2019-03-10T13:56:48.889Z,22.58
2019-03-10T13:59:17.978Z,22.37
2019-03-10T14:01:47.696Z,22.31
2019-03-10T14:04:16.807Z,22.70
2019-03-10T14:06:45.984Z,21.89
2019-03-10T14:09:14.974Z,22.12
2019-03-10T14:11:44.070Z,23.23
2019-03-10T14:14:13.213Z,23.48
2019-03-10T14:16:42.507Z,24.18
2019-03-10T14:19:11.613Z,22.92
2019-03-10T14:21:40.682Z,24.35
2019-03-10T14:24:09.986Z,25.21
2019-03-10T14:26:39.109Z,25.40
2019-03-10T14:29:08.173Z,23.86
2019-03-10T14:31:37.109Z,23.43
2019-03-10T14:34:06.197Z,22.82
2019-03-10T14:36:35.258Z,21.54
2019-03-10T14:39:05.109Z,20.45
2019-03-10T14:41:34.149Z,19.83
2019-03-10T14:44:03.321Z,19.85
2019-03-10T14:46:32.393Z,19.71
2019-03-10T14:49:01.460Z,18.82
2019-03-10T14:51:30.545Z,18.93
2019-03-10T14:53:59.709Z,19.06
2019-03-10T14:56:28.937Z,19.05
2019-03-10T14:58:57.758Z,19.14
2019-03-10T15:01:27.019Z,19.10
2019-03-10T15:03:56.040Z,19.29
2019-03-10T15:06:25.178Z,19.12
2019-03-10T15:08:54.519Z,19.18
2019-03-10T15:11:23.627Z,19.43
2019-03-10T15:13:53.046Z,19.61
2019-03-10T15:16:22.304Z,19.64
2019-03-10T15:18:51.385Z,19.99
2019-03-10T15:21:20.413Z,19.89
2019-03-10T15:23:49.532Z,19.51
2019-03-10T15:26:19.014Z,19.23
2019-03-10T15:28:50.377Z,18.99
2019-03-10T15:31:17.448Z,18.96
2019-03-10T15:33:46.628Z,18.76
2019-03-10T15:36:20.237Z,18.59
2019-03-10T15:38:45.156Z,18.56
2019-03-10T15:41:14.228Z,18.57
2019-03-10T15:43:43.329Z,18.54
2019-03-10T15:46:12.441Z,18.45
2019-03-10T15:48:41.404Z,18.48
2019-03-10T15:51:11.135Z,18.48
2019-03-10T15:53:40.236Z,18.32
2019-03-10T15:56:09.386Z,18.24
2019-03-10T15:58:38.402Z,18.18
2019-03-10T16:01:07.272Z,18.08
2019-03-10T16:03:36.393Z,18.13
2019-03-10T16:06:05.701Z,18.04
2019-03-10T16:08:34.817Z,18.03
2019-03-10T16:11:03.864Z,18.00
2019-03-10T16:13:32.972Z,17.96
2019-03-10T16:16:01.971Z,17.97
2019-03-10T16:18:30.980Z,17.94
2019-03-10T16:21:00.190Z,17.90
2019-03-10T16:23:29.340Z,17.78
2019-03-10T16:25:58.550Z,17.57
2019-03-10T16:28:27.657Z,17.63
2019-03-10T16:30:56.768Z,17.61
2019-03-10T16:33:25.852Z,17.60
2019-03-10T16:35:55.072Z,17.57
2019-03-10T16:38:24.145Z,17.51
2019-03-10T16:40:53.248Z,17.43
2019-03-10T16:43:22.361Z,17.41
2019-03-10T16:45:51.454Z,17.35
2019-03-10T16:48:20.560Z,17.34
2019-03-10T16:50:49.623Z,17.35
2019-03-10T16:53:18.778Z,17.34
2019-03-10T16:55:47.823Z,17.37
2019-03-10T16:58:17.011Z,17.39
2019-03-10T17:00:46.375Z,17.30
2019-03-10T17:03:15.421Z,17.28
2019-03-10T17:05:45.153Z,17.24
2019-03-10T17:08:14.041Z,17.18
2019-03-10T17:10:43.185Z,17.19
2019-03-10T17:13:12.061Z,17.21
2019-03-10T17:15:41.133Z,17.20
2019-03-10T17:18:10.178Z,17.22
2019-03-10T17:20:41.454Z,17.23
2019-03-10T17:23:10.754Z,17.13
2019-03-10T17:25:40.668Z,16.97
2019-03-10T17:28:09.808Z,16.95
2019-03-10T17:30:38.774Z,16.81
2019-03-10T17:33:07.895Z,16.70
2019-03-10T17:35:37.055Z,16.53
2019-03-10T17:38:06.177Z,16.52
2019-03-10T17:40:35.114Z,16.41
2019-03-10T17:43:04.285Z,16.33
2019-03-10T17:45:33.399Z,16.32
2019-03-10T17:48:02.540Z,16.37
2019-03-10T17:50:31.699Z,16.41
2019-03-10T17:53:00.829Z,16.42
2019-03-10T17:55:29.788Z,16.38
2019-03-10T17:57:58.845Z,16.40
2019-03-10T18:00:28.016Z,16.29
2019-03-10T18:19:41.459Z,15.80
2019-03-10T18:22:10.593Z,15.63
2019-03-10T18:41:24.561Z,15.31
2019-03-10T18:43:53.573Z,15.23
2019-03-10T18:46:22.608Z,15.21
2019-03-10T18:48:51.773Z,15.18
2019-03-10T18:51:21.026Z,15.06
2019-03-10T18:53:50.096Z,15.11
2019-03-10T18:56:19.145Z,15.04
2019-03-10T18:58:48.400Z,15.03
2019-03-10T19:01:17.506Z,14.83
2019-03-10T19:03:46.645Z,14.77
2019-03-10T19:06:15.689Z,14.78
2019-03-10T19:08:44.785Z,14.86
2019-03-10T19:11:13.728Z,14.90
2019-03-10T19:13:42.793Z,14.76
2019-03-10T19:16:11.908Z,14.71
2019-03-10T19:18:41.007Z,14.73
2019-03-10T19:21:09.957Z,14.76
2019-03-10T19:23:39.100Z,14.74
2019-03-10T19:26:08.328Z,14.69
2019-03-10T19:28:37.347Z,14.71
2019-03-10T19:31:06.603Z,14.55
2019-03-10T19:33:35.772Z,14.52
2019-03-10T19:36:04.941Z,14.49
2019-03-10T19:38:33.938Z,14.55
2019-03-10T19:57:47.149Z,14.47
2019-03-10T20:00:16.883Z,14.54
2019-03-10T20:02:46.006Z,14.35
2019-03-10T20:05:15.247Z,14.29
2019-03-10T20:07:45.208Z,14.20
2019-03-10T20:10:14.716Z,14.18
2019-03-10T20:12:43.854Z,14.16
2019-03-10T20:15:14.595Z,14.10
2019-03-10T20:17:43.571Z,14.09
2019-03-10T20:20:14.338Z,13.94
2019-03-10T20:22:43.339Z,13.92
2019-03-10T20:25:12.537Z,13.95
2019-03-10T20:27:41.698Z,14.02
2019-03-10T20:30:13.331Z,13.98
2019-03-10T20:32:42.414Z,14.02
2019-03-10T20:35:11.554Z,14.06
2019-03-10T20:37:40.658Z,14.08
2019-03-10T20:40:10.833Z,14.10
2019-03-10T20:42:39.924Z,14.11
2019-03-10T20:45:09.020Z,13.96
2019-03-10T20:47:38.221Z,13.97
2019-03-10T20:50:08.117Z,13.67
2019-03-10T20:52:37.503Z,13.89
2019-03-10T20:55:06.977Z,14.19
2019-03-10T20:57:36.052Z,14.38
2019-03-10T21:00:05.965Z,14.32
2019-03-10T21:02:35.064Z,14.46
2019-03-10T21:05:04.489Z,14.92
2019-03-10T21:07:33.582Z,15.11
2019-03-10T21:10:02.681Z,14.94
2019-03-10T21:12:39.817Z,14.85
2019-03-10T21:15:01.189Z,14.35
2019-03-10T21:17:30.266Z,14.29
2019-03-10T21:19:59.947Z,13.97
2019-03-10T21:22:29.125Z,13.67
2019-03-10T21:24:58.144Z,13.49
2019-03-10T21:27:28.333Z,13.31
2019-03-10T21:29:58.079Z,13.27
2019-03-10T21:32:27.181Z,13.13
2019-03-10T21:34:56.277Z,13.05
2019-03-10T21:37:25.422Z,12.97
2019-03-10T21:39:54.522Z,12.96
2019-03-10T21:42:23.664Z,12.99
2019-03-10T21:44:53.024Z,12.87
2019-03-10T21:47:22.065Z,12.76
2019-03-10T21:49:51.205Z,12.66
2019-03-10T21:52:20.517Z,12.53
2019-03-10T21:54:49.549Z,12.57
2019-03-10T21:57:18.676Z,12.55
2019-03-10T21:59:47.780Z,12.50
2019-03-10T22:02:16.879Z,12.61
2019-03-10T22:04:45.931Z,12.83
2019-03-10T22:07:15.102Z,13.03
2019-03-10T22:09:44.333Z,13.19
2019-03-10T22:12:13.432Z,13.45
2019-03-10T22:14:42.563Z,13.54
2019-03-10T22:17:11.617Z,13.58
2019-03-10T22:19:40.716Z,13.65
2019-03-10T22:22:09.869Z,13.65
2019-03-10T22:24:39.077Z,13.69
2019-03-10T22:27:08.134Z,13.71
2019-03-10T22:29:37.245Z,13.70
2019-03-10T22:32:06.216Z,13.67
2019-03-10T22:34:35.390Z,13.68
2019-03-10T22:37:04.237Z,13.72
2019-03-10T22:39:33.333Z,13.64
2019-03-10T22:42:02.490Z,13.49
2019-03-10T22:44:31.658Z,13.33
2019-03-10T22:47:00.827Z,12.96
2019-03-10T22:49:29.886Z,12.74
2019-03-10T22:51:59.020Z,12.71
2019-03-10T22:54:28.178Z,12.69
2019-03-10T22:56:57.278Z,12.76
2019-03-10T22:59:26.429Z,12.54
2019-03-10T23:01:55.466Z,12.58
2019-03-10T23:04:24.534Z,12.51
2019-03-10T23:06:53.613Z,12.45
2019-03-10T23:09:22.688Z,12.50
2019-03-10T23:11:52.049Z,12.44
2019-03-10T23:14:21.138Z,12.38
2019-03-10T23:16:52.236Z,12.28
2019-03-10T23:19:19.109Z,12.34
2019-03-10T23:21:48.153Z,12.31
2019-03-10T23:24:17.304Z,12.27
2019-03-10T23:26:46.380Z,12.13
2019-03-10T23:29:16.049Z,12.11
2019-03-10T23:31:45.140Z,12.17
2019-03-10T23:34:14.224Z,12.02
2019-03-10T23:36:43.371Z,11.89
2019-03-10T23:39:12.746Z,11.95
2019-03-10T23:41:41.926Z,11.73
2019-03-10T23:44:11.076Z,11.74
2019-03-10T23:46:40.177Z,11.68
2019-03-10T23:49:09.269Z,11.71
2019-03-10T23:51:39.049Z,11.73
2019-03-10T23:54:08.245Z,11.77
2019-03-10T23:56:37.386Z,11.80
2019-03-10T23:59:07.185Z,11.81
